createdAt,value
2022-12-31T00:00:20.436Z,83
2022-12-31T00:01:27.597Z,83
2022-12-31T00:02:34.833Z,83
2022-12-31T00:03:41.840Z,83
2022-12-31T00:04:48.930Z,83
2022-12-31T00:05:56.031Z,83
2022-12-31T00:07:02.518Z,83
2022-12-31T00:08:09.884Z,83
2022-12-31T00:09:16.824Z,83
2022-12-31T00:10:23.856Z,83
2022-12-31T00:11:30.437Z,83
2022-12-31T00:12:37.602Z,83
2022-12-31T00:13:44.758Z,83
2022-12-31T00:14:51.821Z,83
2022-12-31T00:15:58.933Z,83
2022-12-31T00:17:05.543Z,83
2022-12-31T00:18:12.582Z,83
2022-12-31T00:19:19.780Z,83
2022-12-31T00:20:26.959Z,83
2022-12-31T00:23:47.573Z,83
2022-12-31T00:24:54.729Z,83
2022-12-31T00:26:01.855Z,83
2022-12-31T00:27:08.958Z,83
2022-12-31T00:28:15.490Z,83
2022-12-31T00:30:29.822Z,83
2022-12-31T00:31:36.831Z,83
2022-12-31T00:32:43.901Z,84
2022-12-31T00:33:50.493Z,83
2022-12-31T00:34:57.783Z,84
2022-12-31T00:36:04.756Z,83
2022-12-31T00:37:11.834Z,84
2022-12-31T00:38:18.906Z,83
2022-12-31T00:39:25.528Z,83
2022-12-31T00:40:33.110Z,83
2022-12-31T00:41:39.774Z,83
2022-12-31T00:42:46.889Z,83
2022-12-31T00:43:53.932Z,83
2022-12-31T00:45:00.530Z,84
2022-12-31T00:46:07.755Z,83
2022-12-31T00:47:14.835Z,83
2022-12-31T00:48:21.871Z,83
2022-12-31T00:49:28.953Z,84
2022-12-31T00:50:35.613Z,84
2022-12-31T00:51:42.624Z,84
2022-12-31T00:52:49.727Z,84
2022-12-31T00:53:56.906Z,84
2022-12-31T00:55:03.921Z,84
2022-12-31T00:56:10.544Z,84
2022-12-31T00:57:17.742Z,84
2022-12-31T00:58:24.783Z,84
2022-12-31T00:59:31.912Z,84
2022-12-31T01:00:38.971Z,84
2022-12-31T01:01:45.815Z,84
2022-12-31T01:02:52.736Z,84
2022-12-31T01:05:06.968Z,84
2022-12-31T01:06:14.003Z,84
2022-12-31T01:07:20.500Z,84
2022-12-31T01:08:27.670Z,84
2022-12-31T01:09:34.801Z,84
2022-12-31T01:10:41.903Z,84
2022-12-31T01:11:48.948Z,84
2022-12-31T01:12:55.547Z,84
2022-12-31T01:14:02.609Z,84
2022-12-31T01:15:09.802Z,84
2022-12-31T01:16:16.999Z,84
2022-12-31T01:17:23.969Z,84
2022-12-31T01:18:30.539Z,84
2022-12-31T01:19:37.647Z,84
2022-12-31T01:20:44.755Z,84
2022-12-31T01:21:51.875Z,84
2022-12-31T01:22:58.969Z,84
2022-12-31T01:24:05.599Z,84
2022-12-31T01:26:19.806Z,84
2022-12-31T01:27:26.985Z,84
2022-12-31T01:28:33.980Z,84
2022-12-31T01:29:40.583Z,84
2022-12-31T01:30:47.749Z,85
2022-12-31T01:31:54.798Z,85
2022-12-31T01:33:01.891Z,85
2022-12-31T01:34:08.988Z,85
2022-12-31T01:35:15.601Z,85
2022-12-31T01:36:25.970Z,85
2022-12-31T01:37:29.838Z,85
2022-12-31T01:38:36.927Z,85
2022-12-31T01:39:43.996Z,85
2022-12-31T01:40:50.537Z,85
2022-12-31T01:41:57.774Z,85
2022-12-31T01:43:04.810Z,85
2022-12-31T01:44:12.513Z,85
2022-12-31T01:46:25.676Z,85
2022-12-31T01:47:32.736Z,85
2022-12-31T01:48:39.785Z,85
2022-12-31T01:49:46.956Z,86
2022-12-31T01:50:53.466Z,86
2022-12-31T01:52:00.653Z,86
2022-12-31T01:53:07.735Z,86
2022-12-31T01:54:14.819Z,86
2022-12-31T01:55:21.905Z,86
2022-12-31T01:56:28.546Z,86
2022-12-31T01:58:42.706Z,86
2022-12-31T01:59:49.812Z,86
2022-12-31T02:00:56.960Z,86
2022-12-31T02:02:03.632Z,86
2022-12-31T02:03:10.687Z,86
2022-12-31T02:04:17.731Z,86
2022-12-31T02:05:24.846Z,87
2022-12-31T02:06:31.942Z,87
2022-12-31T02:07:38.619Z,87
2022-12-31T02:08:45.670Z,87
2022-12-31T02:09:52.733Z,87
2022-12-31T02:10:59.927Z,87
2022-12-31T02:12:07.030Z,87
2022-12-31T02:13:13.513Z,87
2022-12-31T02:14:20.642Z,87
2022-12-31T02:15:27.741Z,87
2022-12-31T02:16:34.830Z,87
2022-12-31T02:17:41.993Z,87
2022-12-31T02:18:48.570Z,87
2022-12-31T02:19:55.669Z,87
2022-12-31T02:21:02.738Z,87
2022-12-31T02:22:09.980Z,87
2022-12-31T02:23:16.988Z,87
2022-12-31T02:24:23.527Z,88
2022-12-31T02:25:30.633Z,88
2022-12-31T02:27:44.972Z,88
2022-12-31T02:29:58.542Z,88
2022-12-31T02:31:05.686Z,88
2022-12-31T02:32:12.812Z,88
2022-12-31T02:33:19.889Z,88
2022-12-31T02:34:27.016Z,88
2022-12-31T02:35:33.566Z,88
2022-12-31T02:36:40.657Z,88
2022-12-31T02:37:47.748Z,88
2022-12-31T02:38:54.867Z,88
2022-12-31T02:40:01.928Z,88
2022-12-31T02:41:08.616Z,88
2022-12-31T02:42:15.686Z,88
2022-12-31T02:43:22.771Z,88
2022-12-31T02:44:29.871Z,88
2022-12-31T02:45:36.993Z,88
2022-12-31T02:46:43.683Z,88
2022-12-31T02:47:51.193Z,88
2022-12-31T02:48:58.070Z,88
2022-12-31T02:50:04.930Z,88
2022-12-31T02:51:11.982Z,88
2022-12-31T02:52:18.633Z,88
2022-12-31T02:53:25.689Z,89
2022-12-31T02:54:32.781Z,89
2022-12-31T02:55:39.932Z,89
2022-12-31T02:56:47.048Z,89
2022-12-31T02:57:53.557Z,89
2022-12-31T02:59:00.691Z,89
2022-12-31T03:00:08.802Z,89
2022-12-31T03:01:15.042Z,89
2022-12-31T03:02:22.065Z,89
2022-12-31T03:03:28.649Z,89
2022-12-31T03:04:35.729Z,89
2022-12-31T03:05:42.801Z,89
2022-12-31T03:06:49.998Z,89
2022-12-31T03:09:03.621Z,89
2022-12-31T03:10:10.689Z,89
2022-12-31T03:11:17.853Z,89
2022-12-31T03:12:24.989Z,89
2022-12-31T03:13:32.000Z,89
2022-12-31T03:14:38.647Z,89
2022-12-31T03:15:45.725Z,89
2022-12-31T03:16:53.897Z,89
2022-12-31T03:17:59.941Z,89
2022-12-31T03:19:07.018Z,89
2022-12-31T03:20:13.609Z,89
2022-12-31T03:21:23.771Z,89
2022-12-31T03:22:27.924Z,89
2022-12-31T03:23:34.949Z,89
2022-12-31T03:24:42.029Z,89
2022-12-31T03:26:55.759Z,89
2022-12-31T03:28:02.819Z,89
2022-12-31T03:29:09.951Z,89
2022-12-31T03:30:17.319Z,89
2022-12-31T03:31:24.081Z,89
2022-12-31T03:32:30.792Z,89
2022-12-31T03:33:37.873Z,89
2022-12-31T03:34:44.952Z,89
2022-12-31T03:35:52.028Z,89
2022-12-31T03:36:58.712Z,89
2022-12-31T03:38:05.743Z,89
2022-12-31T03:39:12.823Z,89
2022-12-31T03:40:19.972Z,89
2022-12-31T03:41:27.093Z,89
2022-12-31T03:42:33.729Z,89
2022-12-31T03:43:40.763Z,89
2022-12-31T03:44:47.891Z,89
2022-12-31T03:45:55.164Z,89
2022-12-31T03:47:02.120Z,89
2022-12-31T03:48:08.678Z,89
2022-12-31T03:50:22.874Z,89
2022-12-31T03:51:29.997Z,89
2022-12-31T03:52:37.631Z,89
2022-12-31T03:53:43.665Z,89
2022-12-31T03:54:50.735Z,89
2022-12-31T03:55:58.212Z,89
2022-12-31T03:57:05.054Z,89
2022-12-31T03:58:11.531Z,90
2022-12-31T03:59:18.686Z,90
2022-12-31T04:00:25.784Z,90
2022-12-31T04:01:33.033Z,90
2022-12-31T04:02:40.214Z,89
2022-12-31T04:03:46.603Z,89
2022-12-31T04:04:53.673Z,89
2022-12-31T04:06:00.837Z,90
2022-12-31T04:07:08.891Z,89
2022-12-31T04:08:15.010Z,89
2022-12-31T04:09:21.530Z,89
2022-12-31T04:10:28.694Z,90
2022-12-31T04:11:35.808Z,90
2022-12-31T04:12:42.976Z,90
2022-12-31T04:13:50.028Z,90
2022-12-31T04:14:56.575Z,90
2022-12-31T04:16:04.055Z,90
2022-12-31T04:17:10.852Z,90
2022-12-31T04:18:17.919Z,90
2022-12-31T04:19:25.003Z,90
2022-12-31T04:20:31.594Z,90
2022-12-31T04:21:38.990Z,90
2022-12-31T04:22:45.891Z,90
2022-12-31T04:23:52.902Z,90
2022-12-31T04:25:00.051Z,90
2022-12-31T04:26:06.566Z,90
2022-12-31T04:27:13.754Z,90
2022-12-31T04:28:20.769Z,90
2022-12-31T04:29:27.930Z,90
2022-12-31T04:31:41.704Z,90
2022-12-31T04:32:48.761Z,90
2022-12-31T04:33:55.823Z,90
2022-12-31T04:35:02.929Z,90
2022-12-31T04:36:10.045Z,90
2022-12-31T04:37:16.660Z,90
2022-12-31T04:38:23.700Z,90
2022-12-31T04:39:30.832Z,90
2022-12-31T04:40:37.918Z,90
2022-12-31T04:41:45.060Z,90
2022-12-31T04:42:51.674Z,90
2022-12-31T04:43:58.725Z,90
2022-12-31T04:45:05.870Z,90
2022-12-31T04:46:12.941Z,90
2022-12-31T04:47:23.662Z,90
2022-12-31T04:48:26.630Z,90
2022-12-31T04:49:34.012Z,90
2022-12-31T04:50:40.838Z,90
2022-12-31T04:51:47.953Z,90
2022-12-31T04:52:56.171Z,90
2022-12-31T04:56:15.868Z,90
2022-12-31T04:57:23.022Z,90
2022-12-31T04:58:30.058Z,90
2022-12-31T04:59:36.796Z,90
2022-12-31T05:00:43.761Z,90
2022-12-31T05:01:50.986Z,90
2022-12-31T05:02:58.090Z,91
2022-12-31T05:04:05.071Z,90
2022-12-31T05:05:11.672Z,90
2022-12-31T05:06:18.780Z,91
2022-12-31T05:07:25.924Z,91
2022-12-31T05:08:32.983Z,91
2022-12-31T05:09:40.122Z,91
2022-12-31T05:10:46.703Z,91
2022-12-31T05:13:00.852Z,91
2022-12-31T05:14:08.002Z,91
2022-12-31T05:15:15.065Z,91
2022-12-31T05:16:22.007Z,91
2022-12-31T05:17:28.872Z,91
2022-12-31T05:18:35.889Z,91
2022-12-31T05:19:42.943Z,91
2022-12-31T05:20:50.152Z,91
2022-12-31T05:21:56.743Z,91
2022-12-31T05:23:03.768Z,91
2022-12-31T05:24:10.894Z,91
2022-12-31T05:25:17.990Z,90
2022-12-31T05:26:25.103Z,90
2022-12-31T05:27:31.741Z,90
2022-12-31T05:28:38.781Z,90
2022-12-31T05:29:45.924Z,90
2022-12-31T05:30:53.069Z,90
2022-12-31T05:31:59.664Z,90
2022-12-31T05:33:06.727Z,90
2022-12-31T05:34:13.791Z,90
2022-12-31T05:35:20.895Z,90
2022-12-31T05:36:28.039Z,90
2022-12-31T05:37:35.222Z,90
2022-12-31T05:38:41.695Z,90
2022-12-31T05:39:48.797Z,90
2022-12-31T05:40:55.910Z,90
2022-12-31T05:42:03.073Z,90
2022-12-31T05:43:10.130Z,90
2022-12-31T05:44:16.693Z,90
2022-12-31T05:45:30.131Z,90
2022-12-31T05:46:30.951Z,90
2022-12-31T05:47:38.116Z,90
2022-12-31T05:48:45.131Z,90
2022-12-31T05:49:51.692Z,90
2022-12-31T05:50:58.866Z,90
2022-12-31T05:52:05.996Z,90
2022-12-31T05:54:19.646Z,90
2022-12-31T05:55:26.740Z,90
2022-12-31T05:56:33.782Z,90
2022-12-31T05:57:41.303Z,90
2022-12-31T05:59:55.173Z,90
2022-12-31T06:01:02.066Z,90
2022-12-31T06:02:08.859Z,90
2022-12-31T06:03:16.097Z,90
2022-12-31T06:04:23.000Z,90
2022-12-31T06:05:29.624Z,90
2022-12-31T06:06:36.788Z,90
2022-12-31T06:07:43.977Z,90
2022-12-31T06:08:50.897Z,90
2022-12-31T06:09:58.213Z,90
2022-12-31T06:11:04.635Z,90
2022-12-31T06:12:11.744Z,90
2022-12-31T06:13:18.801Z,90
2022-12-31T06:14:25.987Z,90
2022-12-31T06:15:33.074Z,90
2022-12-31T06:16:39.698Z,90
2022-12-31T06:17:46.783Z,90
2022-12-31T06:18:53.848Z,90
2022-12-31T06:20:01.362Z,90
2022-12-31T06:21:08.084Z,90
2022-12-31T06:23:21.760Z,90
2022-12-31T06:24:28.814Z,90
2022-12-31T06:25:47.569Z,90
2022-12-31T06:26:43.039Z,90
2022-12-31T06:27:53.233Z,90
2022-12-31T06:28:56.793Z,90
2022-12-31T06:30:03.868Z,90
2022-12-31T06:31:11.036Z,90
2022-12-31T06:32:18.188Z,90
2022-12-31T06:33:24.706Z,91
2022-12-31T06:35:39.053Z,91
2022-12-31T06:36:46.030Z,91
2022-12-31T06:37:53.106Z,91
2022-12-31T06:38:59.691Z,91
2022-12-31T06:40:07.081Z,91
2022-12-31T06:41:13.901Z,91
2022-12-31T06:42:20.949Z,91
2022-12-31T06:43:28.197Z,91
2022-12-31T06:44:35.202Z,91
2022-12-31T06:45:41.740Z,91
2022-12-31T06:46:48.916Z,91
2022-12-31T06:47:55.988Z,92
2022-12-31T06:49:03.158Z,91
2022-12-31T06:50:09.682Z,91
2022-12-31T06:51:17.653Z,91
2022-12-31T06:52:23.901Z,91
2022-12-31T06:53:30.997Z,91
2022-12-31T06:54:38.164Z,91
2022-12-31T06:55:45.040Z,91
2022-12-31T06:56:51.808Z,91
2022-12-31T06:57:58.906Z,91
2022-12-31T06:59:05.991Z,91
2022-12-31T07:00:13.199Z,91
2022-12-31T07:01:19.779Z,91
2022-12-31T07:03:33.911Z,91
2022-12-31T07:04:41.017Z,91
2022-12-31T07:05:48.229Z,91
2022-12-31T07:06:54.708Z,91
2022-12-31T07:08:01.818Z,91
2022-12-31T07:09:08.917Z,92
2022-12-31T07:10:16.059Z,92
2022-12-31T07:11:24.117Z,92
2022-12-31T07:12:29.843Z,92
2022-12-31T07:13:36.811Z,92
2022-12-31T07:14:43.963Z,92
2022-12-31T07:16:58.249Z,92
2022-12-31T07:18:04.775Z,92
2022-12-31T07:19:11.785Z,92
2022-12-31T07:20:18.967Z,92
2022-12-31T07:21:26.030Z,92
2022-12-31T07:22:33.153Z,91
2022-12-31T07:23:39.776Z,91
2022-12-31T07:24:46.842Z,91
2022-12-31T07:25:53.938Z,91
2022-12-31T07:27:01.020Z,91
2022-12-31T07:28:09.240Z,91
2022-12-31T07:29:14.729Z,91
2022-12-31T07:30:21.822Z,91
2022-12-31T07:31:29.006Z,91
2022-12-31T07:32:36.384Z,91
2022-12-31T07:33:43.169Z,91
2022-12-31T07:34:49.709Z,91
2022-12-31T07:35:56.896Z,91
2022-12-31T07:37:03.916Z,91
2022-12-31T07:38:11.141Z,91
2022-12-31T07:39:18.191Z,91
2022-12-31T07:40:24.797Z,91
2022-12-31T07:41:31.872Z,91
2022-12-31T07:42:39.052Z,91
2022-12-31T07:43:46.077Z,91
2022-12-31T07:44:53.155Z,91
2022-12-31T07:45:59.766Z,91
2022-12-31T07:47:06.900Z,91
2022-12-31T07:48:13.991Z,91
2022-12-31T07:49:21.108Z,91
2022-12-31T07:51:34.796Z,91
2022-12-31T07:52:41.901Z,91
2022-12-31T07:53:49.028Z,91
2022-12-31T07:54:56.122Z,91
2022-12-31T07:56:03.193Z,91
2022-12-31T07:57:09.821Z,91
2022-12-31T07:58:16.906Z,92
2022-12-31T07:59:24.571Z,91
2022-12-31T08:00:31.217Z,92
2022-12-31T08:01:37.912Z,91
2022-12-31T08:02:44.813Z,91
2022-12-31T08:03:51.892Z,92
2022-12-31T08:04:59.006Z,92
2022-12-31T08:07:12.769Z,92
2022-12-31T08:08:19.840Z,92
2022-12-31T08:09:26.933Z,91
2022-12-31T08:10:34.162Z,91
2022-12-31T08:13:55.011Z,92
2022-12-31T08:15:02.054Z,92
2022-12-31T08:16:09.112Z,92
2022-12-31T08:17:16.269Z,92
2022-12-31T08:18:22.782Z,92
2022-12-31T08:19:30.342Z,92
2022-12-31T08:20:36.984Z,92
2022-12-31T08:21:44.102Z,92
2022-12-31T08:22:51.269Z,92
2022-12-31T08:23:57.796Z,92
2022-12-31T08:25:05.032Z,92
2022-12-31T08:26:11.996Z,92
2022-12-31T08:27:19.684Z,92
2022-12-31T08:28:25.692Z,92
2022-12-31T08:29:32.807Z,92
2022-12-31T08:30:39.988Z,92
2022-12-31T08:31:47.067Z,92
2022-12-31T08:32:54.088Z,92
2022-12-31T08:34:05.588Z,92
2022-12-31T08:35:07.815Z,92
2022-12-31T08:36:14.957Z,92
2022-12-31T08:37:22.022Z,92
2022-12-31T08:38:29.175Z,92
2022-12-31T08:39:35.703Z,92
2022-12-31T08:40:42.798Z,92
2022-12-31T08:41:49.920Z,92
2022-12-31T08:42:57.053Z,92
2022-12-31T08:44:04.124Z,92
2022-12-31T08:45:11.269Z,92
2022-12-31T08:46:17.940Z,91
2022-12-31T08:47:24.982Z,92
2022-12-31T08:48:32.000Z,92
2022-12-31T08:49:39.144Z,92
2022-12-31T08:50:45.747Z,92
2022-12-31T08:51:52.797Z,92
2022-12-31T08:52:59.968Z,92
2022-12-31T08:54:07.128Z,92
2022-12-31T08:55:14.152Z,92
2022-12-31T08:56:20.748Z,92
2022-12-31T08:57:27.869Z,92
2022-12-31T08:58:34.954Z,92
2022-12-31T08:59:42.045Z,92
2022-12-31T09:00:49.339Z,92
2022-12-31T09:01:55.994Z,92
2022-12-31T09:03:02.802Z,92
2022-12-31T09:04:09.962Z,92
2022-12-31T09:05:17.108Z,92
2022-12-31T09:06:24.147Z,92
2022-12-31T09:07:31.285Z,92
2022-12-31T09:08:37.814Z,92
2022-12-31T09:10:52.114Z,92
2022-12-31T09:11:59.218Z,92
2022-12-31T09:13:05.776Z,92
2022-12-31T09:14:12.866Z,92
2022-12-31T09:15:19.922Z,92
2022-12-31T09:16:27.213Z,92
2022-12-31T09:17:34.219Z,92
2022-12-31T09:19:47.884Z,92
2022-12-31T09:20:54.957Z,92
2022-12-31T09:22:02.145Z,92
2022-12-31T09:23:09.215Z,92
2022-12-31T09:24:15.795Z,92
2022-12-31T09:25:22.889Z,92
2022-12-31T09:26:30.045Z,92
2022-12-31T09:27:37.189Z,92
2022-12-31T09:28:44.170Z,92
2022-12-31T09:29:51.468Z,92
2022-12-31T09:30:57.914Z,92
2022-12-31T09:32:05.075Z,92
2022-12-31T09:33:12.090Z,92
2022-12-31T09:34:19.276Z,92
2022-12-31T09:35:25.766Z,92
2022-12-31T09:36:32.841Z,92
2022-12-31T09:37:39.558Z,92
2022-12-31T09:38:47.057Z,92
2022-12-31T09:39:54.200Z,92
2022-12-31T09:41:00.740Z,92
2022-12-31T09:42:07.985Z,92
2022-12-31T09:43:14.993Z,93
2022-12-31T09:44:22.068Z,92
2022-12-31T09:45:29.290Z,92
2022-12-31T09:46:35.842Z,92
2022-12-31T09:47:42.979Z,92
2022-12-31T09:48:50.117Z,92
2022-12-31T09:49:57.157Z,92
2022-12-31T09:51:04.244Z,92
2022-12-31T09:52:10.845Z,92
2022-12-31T09:53:17.938Z,92
2022-12-31T09:54:25.041Z,92
2022-12-31T09:55:32.601Z,92
2022-12-31T09:56:39.219Z,92
2022-12-31T09:57:45.850Z,92
2022-12-31T09:58:52.914Z,93
2022-12-31T10:00:00.057Z,93
2022-12-31T10:01:07.290Z,93
2022-12-31T10:02:15.103Z,93
2022-12-31T10:03:20.835Z,93
2022-12-31T10:04:27.924Z,93
2022-12-31T10:05:35.038Z,93
2022-12-31T10:06:42.101Z,93
2022-12-31T10:07:53.431Z,93
2022-12-31T10:08:55.823Z,93
2022-12-31T10:10:02.969Z,93
2022-12-31T10:11:10.010Z,93
2022-12-31T10:12:17.234Z,93
2022-12-31T10:14:30.825Z,93
2022-12-31T10:15:37.983Z,93
2022-12-31T10:16:45.062Z,93
2022-12-31T10:17:52.200Z,93
2022-12-31T10:18:58.767Z,93
2022-12-31T10:20:05.847Z,93
2022-12-31T10:21:12.939Z,93
2022-12-31T10:22:20.133Z,93
2022-12-31T10:23:27.202Z,93
2022-12-31T10:24:34.265Z,93
2022-12-31T10:25:40.958Z,93
2022-12-31T10:26:53.050Z,93
2022-12-31T10:27:55.038Z,93
2022-12-31T10:29:02.170Z,93
2022-12-31T10:30:09.304Z,93
2022-12-31T10:31:15.959Z,93
2022-12-31T10:32:29.395Z,93
2022-12-31T10:33:30.075Z,93
2022-12-31T10:34:37.218Z,93
2022-12-31T10:35:44.276Z,93
2022-12-31T10:36:50.949Z,93
2022-12-31T10:37:57.963Z,93
2022-12-31T10:39:08.820Z,92
2022-12-31T10:40:12.169Z,92
2022-12-31T10:41:19.326Z,92
2022-12-31T10:42:28.583Z,92
2022-12-31T10:43:32.956Z,92
2022-12-31T10:44:40.097Z,92
2022-12-31T10:45:47.309Z,92
2022-12-31T10:48:00.928Z,92
2022-12-31T10:49:08.014Z,92
2022-12-31T10:50:15.079Z,92
2022-12-31T10:51:22.215Z,92
2022-12-31T10:52:28.875Z,92
2022-12-31T10:53:35.895Z,92
2022-12-31T10:54:42.986Z,92
2022-12-31T10:55:50.138Z,92
2022-12-31T10:56:57.196Z,92
2022-12-31T10:58:04.423Z,92
2022-12-31T10:59:10.949Z,92
2022-12-31T11:00:17.513Z,92
2022-12-31T11:01:25.173Z,92
2022-12-31T11:02:32.477Z,92
2022-12-31T11:03:39.411Z,92
2022-12-31T11:04:45.935Z,92
2022-12-31T11:05:53.025Z,92
2022-12-31T11:07:00.205Z,92
2022-12-31T11:08:07.217Z,92
2022-12-31T11:09:13.779Z,92
2022-12-31T11:10:20.935Z,92
2022-12-31T11:11:28.055Z,92
2022-12-31T11:12:35.161Z,92
2022-12-31T11:13:42.236Z,92
2022-12-31T11:14:48.944Z,92
2022-12-31T11:15:56.193Z,92
2022-12-31T11:18:10.229Z,93
2022-12-31T11:19:17.426Z,93
2022-12-31T11:20:23.815Z,93
2022-12-31T11:21:30.974Z,93
2022-12-31T11:22:38.090Z,93
2022-12-31T11:23:45.694Z,93
2022-12-31T11:24:52.254Z,93
2022-12-31T11:25:59.395Z,93
2022-12-31T11:27:05.914Z,93
2022-12-31T11:28:13.035Z,93
2022-12-31T11:29:20.267Z,93
2022-12-31T11:30:27.286Z,93
2022-12-31T11:31:33.917Z,93
2022-12-31T11:32:41.021Z,93
2022-12-31T11:33:50.473Z,93
2022-12-31T11:34:55.109Z,93
2022-12-31T11:36:02.272Z,93
2022-12-31T11:37:08.954Z,93
2022-12-31T11:38:16.106Z,93
2022-12-31T11:39:30.534Z,93
2022-12-31T11:40:30.157Z,93
2022-12-31T11:41:37.302Z,93
2022-12-31T11:42:43.840Z,93
2022-12-31T11:43:50.998Z,93
2022-12-31T11:44:58.041Z,93
2022-12-31T11:46:05.121Z,93
2022-12-31T11:47:12.293Z,93
2022-12-31T11:48:32.042Z,93
2022-12-31T11:49:26.037Z,93
2022-12-31T11:50:33.065Z,93
2022-12-31T11:51:42.117Z,93
2022-12-31T11:52:47.347Z,93
2022-12-31T11:53:53.812Z,93
2022-12-31T11:55:00.949Z,93
2022-12-31T11:56:08.132Z,93
2022-12-31T11:57:15.129Z,93
2022-12-31T11:58:22.287Z,93
2022-12-31T11:59:28.869Z,93
2022-12-31T12:00:35.969Z,93
2022-12-31T12:01:43.154Z,92
2022-12-31T12:02:50.318Z,93
2022-12-31T12:03:57.430Z,92
2022-12-31T12:05:10.313Z,92
2022-12-31T12:06:11.029Z,92
2022-12-31T12:07:18.162Z,92
2022-12-31T12:08:25.152Z,92
2022-12-31T12:09:32.329Z,92
2022-12-31T12:10:38.910Z,92
2022-12-31T12:11:46.023Z,92
2022-12-31T12:12:53.059Z,92
2022-12-31T12:14:00.251Z,92
2022-12-31T12:16:13.930Z,92
2022-12-31T12:17:21.054Z,92
2022-12-31T12:18:28.156Z,92
2022-12-31T12:19:35.168Z,92
2022-12-31T12:21:48.920Z,92
2022-12-31T12:22:56.137Z,92
2022-12-31T12:24:03.063Z,92
2022-12-31T12:25:10.207Z,92
2022-12-31T12:26:16.840Z,92
2022-12-31T12:27:23.994Z,92
2022-12-31T12:28:31.014Z,92
2022-12-31T12:29:38.113Z,92
2022-12-31T12:30:45.180Z,92
2022-12-31T12:31:51.923Z,92
2022-12-31T12:32:59.030Z,92
2022-12-31T12:34:06.014Z,92
2022-12-31T12:35:13.129Z,92
2022-12-31T12:36:20.276Z,92
2022-12-31T12:37:27.404Z,92
2022-12-31T12:38:33.923Z,92
2022-12-31T12:39:42.070Z,92
2022-12-31T12:40:48.119Z,92
2022-12-31T12:41:55.183Z,92
2022-12-31T12:43:01.871Z,92
2022-12-31T12:44:08.999Z,92
2022-12-31T12:45:16.081Z,92
2022-12-31T12:46:23.136Z,92
2022-12-31T12:47:30.300Z,92
2022-12-31T12:48:36.873Z,92
2022-12-31T12:49:43.944Z,92
2022-12-31T12:50:51.021Z,92
2022-12-31T12:51:58.711Z,92
2022-12-31T12:53:05.207Z,91
2022-12-31T12:54:11.839Z,91
2022-12-31T12:55:18.970Z,91
2022-12-31T12:56:26.073Z,91
2022-12-31T12:57:33.189Z,91
2022-12-31T12:58:40.304Z,91
2022-12-31T12:59:47.379Z,91
2022-12-31T13:00:54.006Z,91
2022-12-31T13:02:01.240Z,91
2022-12-31T13:03:08.260Z,91
2022-12-31T13:04:34.671Z,91
2022-12-31T13:05:27.818Z,91
2022-12-31T13:06:28.993Z,91
2022-12-31T13:07:36.128Z,91
2022-12-31T13:08:43.157Z,91
2022-12-31T13:09:50.304Z,91
2022-12-31T13:10:56.875Z,91
2022-12-31T13:12:07.562Z,91
2022-12-31T13:13:23.952Z,91
2022-12-31T13:14:18.177Z,91
2022-12-31T13:15:25.236Z,91
2022-12-31T13:16:31.973Z,91
2022-12-31T13:17:39.005Z,91
2022-12-31T13:18:46.122Z,91
2022-12-31T13:19:53.163Z,91
2022-12-31T13:21:00.303Z,91
2022-12-31T13:22:07.423Z,91
2022-12-31T13:23:13.992Z,90
2022-12-31T13:25:28.235Z,90
2022-12-31T13:26:35.278Z,90
2022-12-31T13:27:41.891Z,90
2022-12-31T13:28:49.029Z,90
2022-12-31T13:29:56.044Z,90
2022-12-31T13:31:06.876Z,90
2022-12-31T13:32:10.301Z,90
2022-12-31T13:33:16.928Z,90
2022-12-31T13:34:23.974Z,90
2022-12-31T13:35:31.115Z,90
2022-12-31T13:36:38.299Z,90
2022-12-31T13:37:45.303Z,90
2022-12-31T13:38:51.920Z,90
2022-12-31T13:39:58.987Z,90
2022-12-31T13:41:06.117Z,90
2022-12-31T13:42:13.192Z,90
2022-12-31T13:44:26.936Z,90
2022-12-31T13:45:34.053Z,90
2022-12-31T13:46:41.107Z,90
2022-12-31T13:47:48.256Z,90
2022-12-31T13:48:55.303Z,90
2022-12-31T13:50:01.957Z,89
2022-12-31T13:51:09.105Z,90
2022-12-31T13:52:16.192Z,89
2022-12-31T13:53:23.210Z,89
2022-12-31T13:54:30.334Z,89
2022-12-31T13:55:36.948Z,89
2022-12-31T13:56:44.019Z,89
2022-12-31T13:57:51.292Z,89
2022-12-31T13:58:58.263Z,89
2022-12-31T14:00:05.312Z,89
2022-12-31T14:01:12.043Z,89
2022-12-31T14:02:19.458Z,89
2022-12-31T14:03:26.129Z,89
2022-12-31T14:04:33.223Z,89
2022-12-31T14:05:40.345Z,89
2022-12-31T14:06:46.946Z,89
2022-12-31T14:07:54.057Z,89
2022-12-31T14:09:01.160Z,89
2022-12-31T14:10:08.282Z,89
2022-12-31T14:11:15.371Z,89
2022-12-31T14:12:21.979Z,89
2022-12-31T14:13:34.378Z,89
2022-12-31T14:14:36.136Z,89
2022-12-31T14:15:43.233Z,89
2022-12-31T14:16:50.416Z,89
2022-12-31T14:17:56.937Z,89
2022-12-31T14:19:04.087Z,89
2022-12-31T14:20:11.710Z,89
2022-12-31T14:21:18.255Z,89
2022-12-31T14:22:28.561Z,89
2022-12-31T14:23:31.918Z,89
2022-12-31T14:24:39.069Z,89
2022-12-31T14:25:46.204Z,89
2022-12-31T14:29:07.007Z,89
2022-12-31T14:30:14.074Z,89
2022-12-31T14:31:21.239Z,89
2022-12-31T14:32:28.691Z,89
2022-12-31T14:33:35.378Z,89
2022-12-31T14:34:42.002Z,89
2022-12-31T14:35:49.116Z,88
2022-12-31T14:36:56.189Z,88
2022-12-31T14:38:03.303Z,89
2022-12-31T14:39:09.978Z,88
2022-12-31T14:40:17.023Z,88
2022-12-31T14:41:24.043Z,88
2022-12-31T14:42:31.241Z,88
2022-12-31T14:43:38.293Z,88
2022-12-31T14:44:44.833Z,88
2022-12-31T14:45:52.029Z,88
2022-12-31T14:46:59.673Z,88
2022-12-31T14:48:06.254Z,88
2022-12-31T14:49:13.313Z,88
2022-12-31T14:50:19.871Z,88
2022-12-31T14:51:27.009Z,88
2022-12-31T14:52:34.193Z,88
2022-12-31T14:53:41.209Z,88
2022-12-31T14:54:48.325Z,88
2022-12-31T14:55:55.385Z,88
2022-12-31T14:57:01.951Z,88
2022-12-31T14:58:29.077Z,88
2022-12-31T14:59:16.234Z,88
2022-12-31T15:00:23.301Z,88
2022-12-31T15:01:30.077Z,88
2022-12-31T15:02:37.330Z,88
2022-12-31T15:03:45.859Z,88
2022-12-31T15:04:51.214Z,88
2022-12-31T15:05:58.345Z,88
2022-12-31T15:07:04.891Z,88
2022-12-31T15:09:19.177Z,88
2022-12-31T15:10:26.246Z,88
2022-12-31T15:12:40.302Z,88
2022-12-31T15:13:47.053Z,88
2022-12-31T15:14:54.147Z,88
2022-12-31T15:16:01.204Z,88
2022-12-31T15:17:08.482Z,88
2022-12-31T15:18:14.911Z,88
2022-12-31T15:19:22.050Z,88
2022-12-31T15:20:29.179Z,88
2022-12-31T15:21:36.254Z,88
2022-12-31T15:22:43.363Z,88
2022-12-31T15:23:49.962Z,88
2022-12-31T15:24:57.077Z,88
2022-12-31T15:26:04.180Z,88
2022-12-31T15:27:11.257Z,88
2022-12-31T15:28:18.385Z,88
2022-12-31T15:29:24.902Z,88
2022-12-31T15:30:32.100Z,88
2022-12-31T15:31:39.249Z,88
2022-12-31T15:32:46.413Z,88
2022-12-31T15:33:53.408Z,88
2022-12-31T15:34:59.973Z,88
2022-12-31T15:36:07.043Z,88
2022-12-31T15:37:14.130Z,88
2022-12-31T15:38:21.407Z,88
2022-12-31T15:39:28.414Z,88
2022-12-31T15:40:35.451Z,88
2022-12-31T15:42:03.005Z,88
2022-12-31T15:42:50.325Z,88
2022-12-31T15:43:56.304Z,88
2022-12-31T15:45:03.423Z,88
2022-12-31T15:46:09.990Z,88
2022-12-31T15:47:17.119Z,88
2022-12-31T15:48:24.713Z,88
2022-12-31T15:50:38.984Z,88
2022-12-31T15:51:45.039Z,88
2022-12-31T15:52:52.091Z,88
2022-12-31T15:53:59.213Z,88
2022-12-31T15:55:06.328Z,88
2022-12-31T15:56:13.384Z,88
2022-12-31T15:57:20.063Z,88
2022-12-31T15:58:27.112Z,88
2022-12-31T15:59:34.193Z,88
2022-12-31T16:00:41.296Z,88
2022-12-31T16:01:48.645Z,88
2022-12-31T16:02:55.236Z,88
2022-12-31T16:04:02.076Z,87
2022-12-31T16:05:09.218Z,87
2022-12-31T16:06:16.328Z,87
2022-12-31T16:07:23.388Z,87
2022-12-31T16:08:30.043Z,87
2022-12-31T16:09:37.091Z,87
2022-12-31T16:10:44.208Z,87
2022-12-31T16:11:51.334Z,87
2022-12-31T16:12:58.499Z,87
2022-12-31T16:14:05.021Z,87
2022-12-31T16:15:12.151Z,87
2022-12-31T16:16:19.273Z,87
2022-12-31T16:17:26.384Z,87
2022-12-31T16:18:33.409Z,87
2022-12-31T16:19:40.041Z,87
2022-12-31T16:20:47.105Z,87
2022-12-31T16:21:54.192Z,87
2022-12-31T16:23:01.402Z,87
2022-12-31T16:24:08.420Z,87
2022-12-31T16:25:31.529Z,86
2022-12-31T16:26:22.121Z,86
2022-12-31T16:27:29.301Z,86
2022-12-31T16:28:36.365Z,86
2022-12-31T16:29:43.447Z,86
2022-12-31T16:30:50.090Z,86
2022-12-31T16:31:57.153Z,86
2022-12-31T16:33:04.331Z,86
2022-12-31T16:34:11.411Z,86
2022-12-31T16:36:25.055Z,86
2022-12-31T16:37:32.183Z,86
2022-12-31T16:38:39.272Z,86
2022-12-31T16:40:53.410Z,86
2022-12-31T16:42:00.077Z,85